sensor_id;sensor_type;location;lat;lon;timestamp;P1;durP1;ratioP1;P2;durP2;ratioP2
8113;SDS011;4099;52.684;9.918;2022-07-01T00:00:46;11.20;;;7.80;;
8113;SDS011;4099;52.684;9.918;2022-07-01T00:05:48;9.80;;;7.50;;
8113;SDS011;4099;52.684;9.918;2022-07-01T00:10:51;8.97;;;8.07;;
8113;SDS011;4099;52.684;9.918;2022-07-01T00:15:52;9.10;;;8.00;;
8113;SDS011;4099;52.684;9.918;2022-07-01T00:20:54;8.60;;;7.70;;
8113;SDS011;4099;52.684;9.918;2022-07-01T00:25:58;9.77;;;7.80;;
8113;SDS011;4099;52.684;9.918;2022-07-01T00:31:00;7.87;;;7.07;;
8113;SDS011;4099;52.684;9.918;2022-07-01T00:36:02;7.97;;;6.00;;
8113;SDS011;4099;52.684;9.918;2022-07-01T00:41:05;8.50;;;6.13;;
8113;SDS011;4099;52.684;9.918;2022-07-01T00:46:07;7.73;;;5.90;;
8113;SDS011;4099;52.684;9.918;2022-07-01T00:51:09;7.47;;;6.77;;
8113;SDS011;4099;52.684;9.918;2022-07-01T00:56:12;7.20;;;6.60;;
8113;SDS011;4099;52.684;9.918;2022-07-01T01:01:14;7.87;;;6.70;;
8113;SDS011;4099;52.684;9.918;2022-07-01T01:06:16;6.90;;;6.30;;
8113;SDS011;4099;52.684;9.918;2022-07-01T01:11:19;8.97;;;7.30;;
8113;SDS011;4099;52.684;9.918;2022-07-01T01:16:21;7.37;;;6.67;;
8113;SDS011;4099;52.684;9.918;2022-07-01T01:21:27;7.20;;;6.60;;
8113;SDS011;4099;52.684;9.918;2022-07-01T01:26:29;8.70;;;6.83;;
8113;SDS011;4099;52.684;9.918;2022-07-01T01:31:31;7.60;;;6.80;;
8113;SDS011;4099;52.684;9.918;2022-07-01T01:36:35;8.33;;;6.60;;
8113;SDS011;4099;52.684;9.918;2022-07-01T01:41:36;6.87;;;5.77;;
8113;SDS011;4099;52.684;9.918;2022-07-01T01:46:38;6.90;;;6.30;;
8113;SDS011;4099;52.684;9.918;2022-07-01T01:51:41;8.03;;;7.33;;
8113;SDS011;4099;52.684;9.918;2022-07-01T01:56:43;7.20;;;6.50;;
8113;SDS011;4099;52.684;9.918;2022-07-01T02:01:45;9.10;;;7.03;;
8113;SDS011;4099;52.684;9.918;2022-07-01T02:06:48;8.23;;;6.83;;
8113;SDS011;4099;52.684;9.918;2022-07-01T02:11:49;9.47;;;8.20;;
8113;SDS011;4099;52.684;9.918;2022-07-01T02:16:51;10.57;;;9.57;;
8113;SDS011;4099;52.684;9.918;2022-07-01T02:21:54;12.90;;;11.57;;
8113;SDS011;4099;52.684;9.918;2022-07-01T02:26:56;12.63;;;11.40;;
8113;SDS011;4099;52.684;9.918;2022-07-01T02:31:58;11.63;;;10.53;;
8113;SDS011;4099;52.684;9.918;2022-07-01T02:37:01;11.20;;;10.30;;
8113;SDS011;4099;52.684;9.918;2022-07-01T02:42:03;13.70;;;12.40;;
8113;SDS011;4099;52.684;9.918;2022-07-01T02:47:23;14.00;;;12.70;;
8113;SDS011;4099;52.684;9.918;2022-07-01T02:52:26;11.23;;;10.33;;
8113;SDS011;4099;52.684;9.918;2022-07-01T02:57:28;9.77;;;8.97;;
8113;SDS011;4099;52.684;9.918;2022-07-01T03:02:31;9.63;;;8.83;;
8113;SDS011;4099;52.684;9.918;2022-07-01T03:07:34;8.67;;;7.90;;
8113;SDS011;4099;52.684;9.918;2022-07-01T03:12:36;7.87;;;7.17;;
8113;SDS011;4099;52.684;9.918;2022-07-01T03:17:39;11.17;;;9.70;;
8113;SDS011;4099;52.684;9.918;2022-07-01T03:22:44;9.20;;;8.40;;
8113;SDS011;4099;52.684;9.918;2022-07-01T03:27:47;6.83;;;6.00;;
8113;SDS011;4099;52.684;9.918;2022-07-01T03:32:49;5.70;;;5.20;;
8113;SDS011;4099;52.684;9.918;2022-07-01T03:37:52;4.60;;;4.30;;
8113;SDS011;4099;52.684;9.918;2022-07-01T03:42:55;3.90;;;3.27;;
8113;SDS011;4099;52.684;9.918;2022-07-01T03:47:57;3.40;;;3.10;;
8113;SDS011;4099;52.684;9.918;2022-07-01T03:53:00;3.20;;;2.90;;
8113;SDS011;4099;52.684;9.918;2022-07-01T03:58:20;2.93;;;2.73;;
8113;SDS011;4099;52.684;9.918;2022-07-01T04:03:22;4.33;;;3.33;;
8113;SDS011;4099;52.684;9.918;2022-07-01T04:08:25;3.10;;;2.80;;
8113;SDS011;4099;52.684;9.918;2022-07-01T04:13:30;3.20;;;3.00;;
8113;SDS011;4099;52.684;9.918;2022-07-01T04:18:31;3.13;;;2.83;;
8113;SDS011;4099;52.684;9.918;2022-07-01T04:23:35;5.20;;;3.30;;
8113;SDS011;4099;52.684;9.918;2022-07-01T04:28:37;5.77;;;3.43;;
8113;SDS011;4099;52.684;9.918;2022-07-01T04:33:38;4.20;;;3.83;;
8113;SDS011;4099;52.684;9.918;2022-07-01T04:38:42;4.33;;;3.70;;
8113;SDS011;4099;52.684;9.918;2022-07-01T04:43:43;4.63;;;4.23;;
8113;SDS011;4099;52.684;9.918;2022-07-01T04:48:45;5.03;;;4.53;;
8113;SDS011;4099;52.684;9.918;2022-07-01T04:53:48;5.27;;;4.50;;
8113;SDS011;4099;52.684;9.918;2022-07-01T04:58:50;5.33;;;4.83;;
8113;SDS011;4099;52.684;9.918;2022-07-01T05:03:52;5.80;;;5.20;;
8113;SDS011;4099;52.684;9.918;2022-07-01T05:08:55;4.53;;;4.07;;
8113;SDS011;4099;52.684;9.918;2022-07-01T05:13:57;4.77;;;4.27;;
8113;SDS011;4099;52.684;9.918;2022-07-01T05:18:58;4.67;;;3.43;;
8113;SDS011;4099;52.684;9.918;2022-07-01T05:24:19;4.63;;;3.30;;
8113;SDS011;4099;52.684;9.918;2022-07-01T05:29:21;3.47;;;3.03;;
8113;SDS011;4099;52.684;9.918;2022-07-01T05:34:23;6.37;;;3.40;;
8113;SDS011;4099;52.684;9.918;2022-07-01T05:39:26;3.63;;;2.80;;
8113;SDS011;4099;52.684;9.918;2022-07-01T05:44:27;3.13;;;2.70;;
8113;SDS011;4099;52.684;9.918;2022-07-01T05:49:29;3.70;;;3.40;;
8113;SDS011;4099;52.684;9.918;2022-07-01T05:54:32;5.30;;;4.07;;
8113;SDS011;4099;52.684;9.918;2022-07-01T05:59:34;3.73;;;3.43;;
8113;SDS011;4099;52.684;9.918;2022-07-01T06:04:36;4.23;;;3.83;;
8113;SDS011;4099;52.684;9.918;2022-07-01T06:09:39;4.23;;;3.83;;
8113;SDS011;4099;52.684;9.918;2022-07-01T06:14:41;4.43;;;4.07;;
8113;SDS011;4099;52.684;9.918;2022-07-01T06:19:43;4.00;;;3.60;;
8113;SDS011;4099;52.684;9.918;2022-07-01T06:24:46;6.20;;;4.20;;
8113;SDS011;4099;52.684;9.918;2022-07-01T06:29:48;4.13;;;3.83;;
8113;SDS011;4099;52.684;9.918;2022-07-01T06:34:51;5.50;;;3.80;;
8113;SDS011;4099;52.684;9.918;2022-07-01T06:39:54;5.20;;;4.70;;
8113;SDS011;4099;52.684;9.918;2022-07-01T06:44:56;5.23;;;4.77;;
8113;SDS011;4099;52.684;9.918;2022-07-01T06:49:58;4.67;;;4.27;;
8113;SDS011;4099;52.684;9.918;2022-07-01T06:55:01;6.37;;;4.40;;
8113;SDS011;4099;52.684;9.918;2022-07-01T07:00:03;4.73;;;4.33;;
8113;SDS011;4099;52.684;9.918;2022-07-01T07:05:06;4.97;;;4.20;;
8113;SDS011;4099;52.684;9.918;2022-07-01T07:10:10;4.63;;;4.07;;
8113;SDS011;4099;52.684;9.918;2022-07-01T07:15:12;4.47;;;3.77;;
8113;SDS011;4099;52.684;9.918;2022-07-01T07:20:13;4.00;;;3.70;;
8113;SDS011;4099;52.684;9.918;2022-07-01T07:25:17;3.93;;;3.63;;
8113;SDS011;4099;52.684;9.918;2022-07-01T07:30:19;4.93;;;3.83;;
8113;SDS011;4099;52.684;9.918;2022-07-01T07:35:21;4.23;;;3.63;;
8113;SDS011;4099;52.684;9.918;2022-07-01T07:40:24;4.00;;;3.70;;
8113;SDS011;4099;52.684;9.918;2022-07-01T07:45:26;4.40;;;4.00;;
8113;SDS011;4099;52.684;9.918;2022-07-01T07:50:28;4.60;;;4.20;;
8113;SDS011;4099;52.684;9.918;2022-07-01T07:55:32;4.63;;;4.30;;
8113;SDS011;4099;52.684;9.918;2022-07-01T08:00:34;4.97;;;4.53;;
8113;SDS011;4099;52.684;9.918;2022-07-01T08:05:36;5.67;;;5.17;;
8113;SDS011;4099;52.684;9.918;2022-07-01T08:10:39;6.67;;;6.03;;
8113;SDS011;4099;52.684;9.918;2022-07-01T08:15:41;7.50;;;6.83;;
8113;SDS011;4099;52.684;9.918;2022-07-01T08:20:43;8.40;;;7.70;;
8113;SDS011;4099;52.684;9.918;2022-07-01T08:25:46;10.27;;;9.20;;
8113;SDS011;4099;52.684;9.918;2022-07-01T08:30:48;11.67;;;9.70;;
8113;SDS011;4099;52.684;9.918;2022-07-01T08:35:50;11.67;;;10.60;;
8113;SDS011;4099;52.684;9.918;2022-07-01T08:40:54;12.30;;;11.13;;
8113;SDS011;4099;52.684;9.918;2022-07-01T08:45:57;13.17;;;11.97;;
8113;SDS011;4099;52.684;9.918;2022-07-01T08:51:01;12.83;;;11.63;;
8113;SDS011;4099;52.684;9.918;2022-07-01T08:56:05;13.80;;;12.60;;
8113;SDS011;4099;52.684;9.918;2022-07-01T09:01:33;13.00;;;11.80;;
8113;SDS011;4099;52.684;9.918;2022-07-01T09:06:35;13.87;;;12.57;;
8113;SDS011;4099;52.684;9.918;2022-07-01T09:11:38;15.17;;;13.80;;
8113;SDS011;4099;52.684;9.918;2022-07-01T09:16:53;13.63;;;12.37;;
8113;SDS011;4099;52.684;9.918;2022-07-01T09:21:58;15.47;;;14.07;;
8113;SDS011;4099;52.684;9.918;2022-07-01T09:27:03;16.27;;;14.77;;
8113;SDS011;4099;52.684;9.918;2022-07-01T09:32:09;15.80;;;14.30;;
8113;SDS011;4099;52.684;9.918;2022-07-01T09:37:13;15.20;;;13.70;;
8113;SDS011;4099;52.684;9.918;2022-07-01T09:42:21;15.47;;;13.87;;
8113;SDS011;4099;52.684;9.918;2022-07-01T09:47:24;16.90;;;15.40;;
8113;SDS011;4099;52.684;9.918;2022-07-01T09:52:26;15.60;;;14.20;;
8113;SDS011;4099;52.684;9.918;2022-07-01T09:57:29;16.17;;;14.63;;
8113;SDS011;4099;52.684;9.918;2022-07-01T10:02:31;16.73;;;15.10;;
8113;SDS011;4099;52.684;9.918;2022-07-01T10:07:37;15.80;;;14.20;;
8113;SDS011;4099;52.684;9.918;2022-07-01T10:12:47;14.10;;;12.70;;
8113;SDS011;4099;52.684;9.918;2022-07-01T10:17:53;12.57;;;11.37;;
8113;SDS011;4099;52.684;9.918;2022-07-01T10:22:59;13.87;;;12.57;;
8113;SDS011;4099;52.684;9.918;2022-07-01T10:33:47;14.07;;;12.87;;
8113;SDS011;4099;52.684;9.918;2022-07-01T10:44:25;13.50;;;12.10;;
8113;SDS011;4099;52.684;9.918;2022-07-01T10:54:57;14.90;;;13.40;;
8113;SDS011;4099;52.684;9.918;2022-07-01T11:05:31;16.10;;;14.57;;
8113;SDS011;4099;52.684;9.918;2022-07-01T11:10:35;15.33;;;13.43;;
8113;SDS011;4099;52.684;9.918;2022-07-01T11:15:38;15.33;;;13.93;;
8113;SDS011;4099;52.684;9.918;2022-07-01T11:20:40;15.27;;;13.80;;
8113;SDS011;4099;52.684;9.918;2022-07-01T11:25:42;14.50;;;13.10;;
8113;SDS011;4099;52.684;9.918;2022-07-01T11:30:46;15.33;;;13.73;;
8113;SDS011;4099;52.684;9.918;2022-07-01T11:35:47;14.50;;;13.10;;
8113;SDS011;4099;52.684;9.918;2022-07-01T11:41:07;13.03;;;11.77;;
8113;SDS011;4099;52.684;9.918;2022-07-01T11:46:12;13.87;;;12.57;;
8113;SDS011;4099;52.684;9.918;2022-07-01T11:51:15;13.57;;;12.13;;
8113;SDS011;4099;52.684;9.918;2022-07-01T11:56:27;12.47;;;11.27;;
8113;SDS011;4099;52.684;9.918;2022-07-01T12:01:32;13.17;;;11.87;;
8113;SDS011;4099;52.684;9.918;2022-07-01T12:06:35;10.50;;;9.47;;
8113;SDS011;4099;52.684;9.918;2022-07-01T12:11:40;11.80;;;10.60;;
8113;SDS011;4099;52.684;9.918;2022-07-01T12:16:46;11.03;;;9.63;;
8113;SDS011;4099;52.684;9.918;2022-07-01T12:21:53;10.50;;;9.40;;
8113;SDS011;4099;52.684;9.918;2022-07-01T12:27:02;10.53;;;9.53;;
8113;SDS011;4099;52.684;9.918;2022-07-01T12:32:06;11.47;;;10.27;;
8113;SDS011;4099;52.684;9.918;2022-07-01T12:37:09;10.53;;;9.53;;
8113;SDS011;4099;52.684;9.918;2022-07-01T12:42:20;11.53;;;10.33;;
8113;SDS011;4099;52.684;9.918;2022-07-01T12:47:28;11.00;;;9.90;;
8113;SDS011;4099;52.684;9.918;2022-07-01T12:52:33;11.13;;;9.53;;
8113;SDS011;4099;52.684;9.918;2022-07-01T12:57:35;10.50;;;9.37;;
8113;SDS011;4099;52.684;9.918;2022-07-01T13:02:38;11.63;;;9.03;;
8113;SDS011;4099;52.684;9.918;2022-07-01T13:07:40;9.23;;;8.40;;
8113;SDS011;4099;52.684;9.918;2022-07-01T13:12:42;8.07;;;7.27;;
8113;SDS011;4099;52.684;9.918;2022-07-01T13:17:46;8.90;;;7.27;;
8113;SDS011;4099;52.684;9.918;2022-07-01T13:22:49;9.27;;;8.37;;
8113;SDS011;4099;52.684;9.918;2022-07-01T13:27:51;9.80;;;8.80;;
8113;SDS011;4099;52.684;9.918;2022-07-01T13:32:55;9.87;;;8.87;;
8113;SDS011;4099;52.684;9.918;2022-07-01T13:37:57;8.87;;;7.97;;
8113;SDS011;4099;52.684;9.918;2022-07-01T13:42:59;8.43;;;7.63;;
8113;SDS011;4099;52.684;9.918;2022-07-01T13:48:03;7.87;;;7.07;;
8113;SDS011;4099;52.684;9.918;2022-07-01T13:53:05;8.80;;;7.90;;
8113;SDS011;4099;52.684;9.918;2022-07-01T13:58:07;7.80;;;7.10;;
8113;SDS011;4099;52.684;9.918;2022-07-01T14:03:10;8.03;;;7.27;;
8113;SDS011;4099;52.684;9.918;2022-07-01T14:08:13;8.07;;;7.37;;
8113;SDS011;4099;52.684;9.918;2022-07-01T14:13:15;8.50;;;7.70;;
8113;SDS011;4099;52.684;9.918;2022-07-01T14:18:22;8.10;;;7.30;;
8113;SDS011;4099;52.684;9.918;2022-07-01T14:23:24;8.30;;;7.50;;
8113;SDS011;4099;52.684;9.918;2022-07-01T14:28:26;7.87;;;7.17;;
8113;SDS011;4099;52.684;9.918;2022-07-01T14:33:30;7.87;;;7.07;;
8113;SDS011;4099;52.684;9.918;2022-07-01T14:38:35;6.90;;;6.30;;
8113;SDS011;4099;52.684;9.918;2022-07-01T14:43:40;6.80;;;5.40;;
8113;SDS011;4099;52.684;9.918;2022-07-01T14:48:44;6.13;;;5.53;;
8113;SDS011;4099;52.684;9.918;2022-07-01T14:53:46;5.70;;;5.20;;
8113;SDS011;4099;52.684;9.918;2022-07-01T14:58:48;5.90;;;5.30;;
8113;SDS011;4099;52.684;9.918;2022-07-01T15:03:52;5.43;;;4.93;;
8113;SDS011;4099;52.684;9.918;2022-07-01T15:08:54;5.70;;;4.63;;
8113;SDS011;4099;52.684;9.918;2022-07-01T15:13:56;5.60;;;5.10;;
8113;SDS011;4099;52.684;9.918;2022-07-01T15:19:00;5.20;;;4.70;;
8113;SDS011;4099;52.684;9.918;2022-07-01T15:24:02;6.20;;;5.13;;
8113;SDS011;4099;52.684;9.918;2022-07-01T15:29:05;5.40;;;4.90;;
8113;SDS011;4099;52.684;9.918;2022-07-01T15:34:09;4.97;;;4.50;;
8113;SDS011;4099;52.684;9.918;2022-07-01T15:39:13;5.23;;;3.90;;
8113;SDS011;4099;52.684;9.918;2022-07-01T15:44:16;4.53;;;3.53;;
8113;SDS011;4099;52.684;9.918;2022-07-01T15:49:20;4.83;;;3.67;;
8113;SDS011;4099;52.684;9.918;2022-07-01T15:54:22;3.83;;;3.53;;
8113;SDS011;4099;52.684;9.918;2022-07-01T15:59:24;5.20;;;3.60;;
8113;SDS011;4099;52.684;9.918;2022-07-01T16:04:31;5.97;;;3.53;;
8113;SDS011;4099;52.684;9.918;2022-07-01T16:09:34;3.40;;;3.10;;
8113;SDS011;4099;52.684;9.918;2022-07-01T16:14:42;3.60;;;3.00;;
8113;SDS011;4099;52.684;9.918;2022-07-01T16:19:48;2.87;;;2.40;;
8113;SDS011;4099;52.684;9.918;2022-07-01T16:24:53;3.47;;;2.70;;
8113;SDS011;4099;52.684;9.918;2022-07-01T16:29:56;3.63;;;2.50;;
8113;SDS011;4099;52.684;9.918;2022-07-01T16:35:00;2.50;;;2.30;;
8113;SDS011;4099;52.684;9.918;2022-07-01T16:40:03;4.30;;;2.25;;
8113;SDS011;4099;52.684;9.918;2022-07-01T16:45:10;4.65;;;2.53;;
8113;SDS011;4099;52.684;9.918;2022-07-01T16:50:14;2.53;;;2.03;;
8113;SDS011;4099;52.684;9.918;2022-07-01T16:55:17;2.60;;;2.40;;
8113;SDS011;4099;52.684;9.918;2022-07-01T17:00:24;2.67;;;2.45;;
8113;SDS011;4099;52.684;9.918;2022-07-01T17:05:29;2.85;;;2.20;;
8113;SDS011;4099;52.684;9.918;2022-07-01T17:10:31;2.47;;;2.20;;
8113;SDS011;4099;52.684;9.918;2022-07-01T17:15:34;3.77;;;2.77;;
8113;SDS011;4099;52.684;9.918;2022-07-01T17:20:38;3.53;;;2.60;;
8113;SDS011;4099;52.684;9.918;2022-07-01T17:25:43;3.67;;;2.70;;
8113;SDS011;4099;52.684;9.918;2022-07-01T17:30:51;3.47;;;2.43;;
8113;SDS011;4099;52.684;9.918;2022-07-01T17:35:58;3.03;;;2.70;;
8113;SDS011;4099;52.684;9.918;2022-07-01T17:41:01;3.87;;;3.20;;
8113;SDS011;4099;52.684;9.918;2022-07-01T17:46:07;3.17;;;2.83;;
8113;SDS011;4099;52.684;9.918;2022-07-01T17:51:12;3.30;;;2.97;;
8113;SDS011;4099;52.684;9.918;2022-07-01T17:56:17;4.13;;;2.43;;
8113;SDS011;4099;52.684;9.918;2022-07-01T18:01:19;2.80;;;2.60;;
8113;SDS011;4099;52.684;9.918;2022-07-01T18:06:24;3.03;;;2.73;;
8113;SDS011;4099;52.684;9.918;2022-07-01T18:11:30;2.70;;;2.50;;
8113;SDS011;4099;52.684;9.918;2022-07-01T18:16:51;3.00;;;2.70;;
8113;SDS011;4099;52.684;9.918;2022-07-01T18:22:00;3.33;;;3.03;;
8113;SDS011;4099;52.684;9.918;2022-07-01T18:27:07;3.77;;;3.43;;
8113;SDS011;4099;52.684;9.918;2022-07-01T18:32:10;3.63;;;2.87;;
8113;SDS011;4099;52.684;9.918;2022-07-01T18:37:14;3.10;;;2.80;;
8113;SDS011;4099;52.684;9.918;2022-07-01T18:42:18;3.10;;;2.90;;
8113;SDS011;4099;52.684;9.918;2022-07-01T18:47:20;4.93;;;3.73;;
8113;SDS011;4099;52.684;9.918;2022-07-01T18:52:25;3.80;;;3.40;;
8113;SDS011;4099;52.684;9.918;2022-07-01T18:57:27;3.57;;;2.97;;
8113;SDS011;4099;52.684;9.918;2022-07-01T19:02:29;4.43;;;2.87;;
8113;SDS011;4099;52.684;9.918;2022-07-01T19:07:33;2.47;;;2.33;;
8113;SDS011;4099;52.684;9.918;2022-07-01T19:12:35;2.70;;;2.50;;
8113;SDS011;4099;52.684;9.918;2022-07-01T19:17:38;2.90;;;2.40;;
8113;SDS011;4099;52.684;9.918;2022-07-01T19:22:41;3.83;;;3.00;;
8113;SDS011;4099;52.684;9.918;2022-07-01T19:27:45;3.63;;;2.67;;
8113;SDS011;4099;52.684;9.918;2022-07-01T19:32:47;4.23;;;2.73;;
8113;SDS011;4099;52.684;9.918;2022-07-01T19:37:51;3.00;;;2.80;;
8113;SDS011;4099;52.684;9.918;2022-07-01T19:42:57;3.10;;;2.80;;
8113;SDS011;4099;52.684;9.918;2022-07-01T19:47:59;4.10;;;3.30;;
8113;SDS011;4099;52.684;9.918;2022-07-01T19:53:03;5.73;;;3.23;;
8113;SDS011;4099;52.684;9.918;2022-07-01T19:58:05;5.50;;;3.07;;
8113;SDS011;4099;52.684;9.918;2022-07-01T20:03:08;6.13;;;3.63;;
8113;SDS011;4099;52.684;9.918;2022-07-01T20:08:11;4.63;;;3.17;;
8113;SDS011;4099;52.684;9.918;2022-07-01T20:13:14;4.10;;;3.70;;
8113;SDS011;4099;52.684;9.918;2022-07-01T20:18:16;3.53;;;3.20;;
8113;SDS011;4099;52.684;9.918;2022-07-01T20:23:21;4.27;;;3.40;;
8113;SDS011;4099;52.684;9.918;2022-07-01T20:28:24;4.20;;;3.80;;
8113;SDS011;4099;52.684;9.918;2022-07-01T20:33:26;4.20;;;3.80;;
8113;SDS011;4099;52.684;9.918;2022-07-01T20:38:31;4.60;;;3.90;;
8113;SDS011;4099;52.684;9.918;2022-07-01T20:43:34;5.93;;;3.70;;
8113;SDS011;4099;52.684;9.918;2022-07-01T20:48:36;4.23;;;3.70;;
8113;SDS011;4099;52.684;9.918;2022-07-01T20:53:40;3.80;;;3.50;;
8113;SDS011;4099;52.684;9.918;2022-07-01T20:58:42;3.80;;;3.50;;
8113;SDS011;4099;52.684;9.918;2022-07-01T21:03:47;4.20;;;3.80;;
8113;SDS011;4099;52.684;9.918;2022-07-01T21:08:51;4.17;;;3.77;;
8113;SDS011;4099;52.684;9.918;2022-07-01T21:13:53;4.50;;;4.10;;
8113;SDS011;4099;52.684;9.918;2022-07-01T21:18:55;4.23;;;3.83;;
8113;SDS011;4099;52.684;9.918;2022-07-01T21:24:00;5.30;;;4.80;;
8113;SDS011;4099;52.684;9.918;2022-07-01T21:29:02;6.47;;;4.40;;
8113;SDS011;4099;52.684;9.918;2022-07-01T21:34:05;4.40;;;4.00;;
8113;SDS011;4099;52.684;9.918;2022-07-01T21:39:10;4.97;;;4.40;;
8113;SDS011;4099;52.684;9.918;2022-07-01T21:44:15;5.93;;;4.43;;
8113;SDS011;4099;52.684;9.918;2022-07-01T21:49:19;5.30;;;4.67;;
8113;SDS011;4099;52.684;9.918;2022-07-01T21:54:25;5.50;;;4.90;;
8113;SDS011;4099;52.684;9.918;2022-07-01T21:59:29;5.43;;;4.90;;
8113;SDS011;4099;52.684;9.918;2022-07-01T22:04:35;5.70;;;4.77;;
8113;SDS011;4099;52.684;9.918;2022-07-01T22:16:04;7.60;;;5.50;;
8113;SDS011;4099;52.684;9.918;2022-07-01T22:21:08;6.17;;;5.40;;
8113;SDS011;4099;52.684;9.918;2022-07-01T22:26:13;7.43;;;4.97;;
8113;SDS011;4099;52.684;9.918;2022-07-01T22:31:17;5.83;;;5.13;;
8113;SDS011;4099;52.684;9.918;2022-07-01T22:36:21;6.07;;;5.47;;
8113;SDS011;4099;52.684;9.918;2022-07-01T22:41:23;6.40;;;5.70;;
8113;SDS011;4099;52.684;9.918;2022-07-01T22:46:33;5.87;;;4.73;;
8113;SDS011;4099;52.684;9.918;2022-07-01T22:51:46;6.13;;;5.63;;
8113;SDS011;4099;52.684;9.918;2022-07-01T22:57:01;7.23;;;5.80;;
8113;SDS011;4099;52.684;9.918;2022-07-01T23:02:05;5.73;;;5.20;;
8113;SDS011;4099;52.684;9.918;2022-07-01T23:07:13;5.33;;;4.83;;
8113;SDS011;4099;52.684;9.918;2022-07-01T23:12:23;6.17;;;5.60;;
8113;SDS011;4099;52.684;9.918;2022-07-01T23:17:38;5.57;;;4.80;;
8113;SDS011;4099;52.684;9.918;2022-07-01T23:22:43;5.40;;;4.90;;
8113;SDS011;4099;52.684;9.918;2022-07-01T23:27:48;5.67;;;4.70;;
8113;SDS011;4099;52.684;9.918;2022-07-01T23:32:53;7.87;;;5.30;;
8113;SDS011;4099;52.684;9.918;2022-07-01T23:37:55;5.57;;;5.07;;
8113;SDS011;4099;52.684;9.918;2022-07-01T23:43:00;6.80;;;5.17;;
8113;SDS011;4099;52.684;9.918;2022-07-01T23:48:04;6.53;;;5.80;;
8113;SDS011;4099;52.684;9.918;2022-07-01T23:53:06;7.97;;;5.93;;
8113;SDS011;4099;52.684;9.918;2022-07-01T23:58:08;6.30;;;5.70;;
